createdAt,value
2018-12-06T00:00:31.658Z,101135.64
2018-12-06T00:02:59.182Z,101128.67
2018-12-06T00:05:26.723Z,101126.53
2018-12-06T00:08:06.104Z,101133.31
2018-12-06T00:10:34.539Z,101136.72
2018-12-06T00:13:02.271Z,101135.87
2018-12-06T00:15:29.883Z,101137.99
2018-12-06T00:17:57.387Z,101137.80
2018-12-06T00:20:25.061Z,101135.18
2018-12-06T00:22:52.614Z,101125.60
2018-12-06T00:25:20.170Z,101128.61
2018-12-06T00:27:47.701Z,101126.08
2018-12-06T00:30:41.502Z,101120.98
2018-12-06T00:33:09.237Z,101115.28
2018-12-06T00:35:36.817Z,101107.95
2018-12-06T00:38:04.485Z,101109.97
2018-12-06T00:40:33.829Z,101104.45
2018-12-06T00:43:01.406Z,101103.65
2018-12-06T00:45:28.978Z,101100.63
2018-12-06T00:47:56.633Z,101092.57
2018-12-06T00:50:24.863Z,101084.53
2018-12-06T00:52:53.390Z,101085.92
2018-12-06T00:55:20.979Z,101086.41
2018-12-06T00:57:48.540Z,101087.34
2018-12-06T01:00:16.177Z,101082.14
2018-12-06T01:02:45.327Z,101075.02
2018-12-06T01:05:13.125Z,101067.78
2018-12-06T01:07:40.636Z,101063.59
2018-12-06T01:10:08.284Z,101060.58
2018-12-06T01:12:35.865Z,101061.41
2018-12-06T01:15:03.587Z,101063.66
2018-12-06T01:17:31.174Z,101061.34
2018-12-06T01:19:58.719Z,101065.02
2018-12-06T01:22:26.301Z,101065.21
2018-12-06T01:24:53.845Z,101069.51
2018-12-06T01:27:21.405Z,101067.29
2018-12-06T01:29:51.230Z,101063.84
2018-12-06T01:32:18.783Z,101059.66
2018-12-06T01:34:46.391Z,101054.81
2018-12-06T01:37:14.002Z,101046.35
2018-12-06T01:39:41.669Z,101040.78
2018-12-06T01:42:09.252Z,101043.85
2018-12-06T01:44:36.821Z,101044.47
2018-12-06T01:47:04.370Z,101040.23
2018-12-06T01:49:32.357Z,101037.35
2018-12-06T01:51:59.981Z,101032.02
2018-12-06T01:54:27.557Z,101036.34
2018-12-06T01:56:55.096Z,101033.59
2018-12-06T01:59:22.619Z,101034.91
2018-12-06T02:01:51.122Z,101033.17
2018-12-06T02:04:18.706Z,101027.25
2018-12-06T02:06:46.366Z,101025.27
2018-12-06T02:09:14.902Z,101027.07
2018-12-06T02:11:42.536Z,101018.66
2018-12-06T02:14:10.170Z,101023.30
2018-12-06T02:16:38.714Z,101016.56
2018-12-06T02:19:07.327Z,101007.89
2018-12-06T02:21:35.547Z,101004.25
2018-12-06T02:24:03.208Z,101008.23
2018-12-06T02:26:30.801Z,101008.75
2018-12-06T02:28:59.100Z,101003.64
2018-12-06T02:31:26.811Z,100998.66
2018-12-06T02:33:54.474Z,100993.11
2018-12-06T02:36:22.106Z,100989.78
2018-12-06T02:38:49.694Z,100987.07
2018-12-06T02:41:17.228Z,100987.02
2018-12-06T02:43:44.981Z,100983.81
2018-12-06T02:46:12.492Z,100979.59
2018-12-06T02:48:40.030Z,100976.31
2018-12-06T02:51:07.620Z,100964.89
2018-12-06T02:53:35.165Z,100964.89
2018-12-06T02:56:03.597Z,100965.81
2018-12-06T02:58:31.128Z,100956.52
2018-12-06T03:00:58.714Z,100962.03
2018-12-06T03:03:26.223Z,100959.88
2018-12-06T03:05:53.760Z,100957.84
2018-12-06T03:08:22.241Z,100958.31
2018-12-06T03:10:49.755Z,100952.07
2018-12-06T03:13:17.309Z,100942.87
2018-12-06T03:15:45.629Z,100941.63
2018-12-06T03:18:14.066Z,100934.25
2018-12-06T03:20:41.560Z,100935.03
2018-12-06T03:23:09.096Z,100932.97
2018-12-06T03:25:36.762Z,100926.19
2018-12-06T03:28:04.294Z,100927.95
2018-12-06T03:30:31.856Z,100919.44
2018-12-06T03:32:59.472Z,100920.36
2018-12-06T03:35:27.166Z,100914.43
2018-12-06T03:37:54.758Z,100911.09
2018-12-06T03:40:22.286Z,100909.91
2018-12-06T03:42:49.838Z,100898.47
2018-12-06T03:45:17.412Z,100897.61
2018-12-06T03:47:44.971Z,100898.06
2018-12-06T03:50:12.698Z,100890.45
2018-12-06T03:52:40.289Z,100898.88
2018-12-06T03:55:07.883Z,100895.46
2018-12-06T03:57:35.504Z,100895.09
2018-12-06T04:00:03.531Z,100893.86
2018-12-06T04:02:31.033Z,100892.17
2018-12-06T04:04:58.615Z,100884.96
2018-12-06T04:07:26.775Z,100884.59
2018-12-06T04:09:54.676Z,100888.02
2018-12-06T04:12:22.227Z,100895.72
2018-12-06T04:14:49.790Z,100896.21
2018-12-06T04:17:17.710Z,100893.29
2018-12-06T04:19:45.246Z,100888.67
2018-12-06T04:22:12.943Z,100892.54
2018-12-06T04:24:40.558Z,100903.25
2018-12-06T04:27:08.154Z,100904.53
2018-12-06T04:29:37.389Z,100913.09
2018-12-06T04:32:05.051Z,100914.33
2018-12-06T04:34:32.609Z,100910.09
2018-12-06T04:37:00.276Z,100913.09
2018-12-06T04:39:27.980Z,100916.52
2018-12-06T04:41:55.512Z,100899.50
2018-12-06T04:44:23.055Z,100889.36
2018-12-06T04:46:51.592Z,100892.36
2018-12-06T04:49:19.200Z,100897.51
2018-12-06T04:51:46.835Z,100899.58
2018-12-06T04:54:14.524Z,100899.58
2018-12-06T04:56:42.123Z,100910.70
2018-12-06T04:59:09.651Z,100907.24
2018-12-06T05:01:37.264Z,100912.35
2018-12-06T05:04:05.543Z,100914.98
2018-12-06T05:06:33.846Z,100922.27
2018-12-06T05:09:02.135Z,100919.72
2018-12-06T05:11:29.778Z,100907.81
2018-12-06T05:13:57.360Z,100900.93
2018-12-06T05:16:27.044Z,100892.36
2018-12-06T05:18:54.625Z,100883.38
2018-12-06T05:21:22.154Z,100882.97
2018-12-06T05:23:49.724Z,100886.80
2018-12-06T05:26:17.314Z,100896.27
2018-12-06T05:28:45.437Z,100897.13
2018-12-06T05:31:13.632Z,100897.55
2018-12-06T05:33:41.488Z,100897.17
2018-12-06T05:36:09.054Z,100898.08
2018-12-06T05:38:36.859Z,100897.25
2018-12-06T05:41:04.922Z,100884.02
2018-12-06T05:43:33.291Z,100887.44
2018-12-06T05:46:01.373Z,100891.31
2018-12-06T05:48:28.982Z,100889.20
2018-12-06T05:50:56.506Z,100882.70
2018-12-06T05:53:24.671Z,100890.55
2018-12-06T05:55:52.613Z,100885.13
2018-12-06T05:58:20.306Z,100886.96
2018-12-06T06:00:48.011Z,100889.10
2018-12-06T06:03:15.626Z,100901.47
2018-12-06T06:05:43.770Z,100895.08
2018-12-06T06:08:11.934Z,100904.96
2018-12-06T06:10:39.671Z,100907.52
2018-12-06T06:13:07.513Z,100908.80
2018-12-06T06:15:35.173Z,100910.52
2018-12-06T06:18:02.943Z,100905.83
2018-12-06T06:20:30.646Z,100907.97
2018-12-06T06:22:58.164Z,100916.92
2018-12-06T06:25:26.250Z,100913.98
2018-12-06T06:27:53.776Z,100925.48
2018-12-06T06:30:22.237Z,100917.40
2018-12-06T06:32:49.745Z,100920.78
2018-12-06T06:35:17.711Z,100930.12
2018-12-06T06:37:45.238Z,100922.44
2018-12-06T06:40:13.432Z,100929.25
2018-12-06T06:42:42.142Z,100929.32
2018-12-06T06:45:11.332Z,100928.05
2018-12-06T06:47:38.925Z,100925.94
2018-12-06T06:50:06.558Z,100920.85
2018-12-06T06:52:34.602Z,100918.74
2018-12-06T06:55:03.409Z,100917.91
2018-12-06T06:57:33.434Z,100910.66
2018-12-06T07:00:03.016Z,100920.53
2018-12-06T07:02:32.050Z,100916.28
2018-12-06T07:04:59.700Z,100917.59
2018-12-06T07:07:28.755Z,100917.59
2018-12-06T07:09:57.052Z,100923.19
2018-12-06T07:12:25.513Z,100924.05
2018-12-06T07:14:55.303Z,100915.90
2018-12-06T07:17:28.066Z,100919.77
2018-12-06T07:20:01.423Z,100913.75
2018-12-06T07:22:33.613Z,100928.72
2018-12-06T07:25:01.726Z,100922.71
2018-12-06T07:27:34.709Z,100933.84
2018-12-06T07:30:12.193Z,100937.67
2018-12-06T07:32:37.644Z,100939.02
2018-12-06T07:35:05.495Z,100951.36
2018-12-06T07:37:33.688Z,100959.09
2018-12-06T07:40:01.217Z,100957.38
2018-12-06T07:42:28.835Z,100958.23
2018-12-06T07:44:56.384Z,100959.97
2018-12-06T07:47:25.467Z,100958.27
2018-12-06T07:49:53.017Z,100966.84
2018-12-06T07:52:20.610Z,100971.95
2018-12-06T07:54:49.119Z,100975.38
2018-12-06T07:59:58.078Z,100978.42
2018-12-06T08:02:41.877Z,100985.30
2018-12-06T08:08:26.710Z,100994.73
2018-12-06T08:10:54.393Z,100990.92
2018-12-06T08:13:23.040Z,100988.34
2018-12-06T08:15:50.741Z,100987.47
2018-12-06T08:18:18.369Z,100994.34
2018-12-06T08:20:46.435Z,100989.23
2018-12-06T08:23:14.006Z,100991.88
2018-12-06T08:25:42.221Z,100988.52
2018-12-06T08:28:09.873Z,100992.78
2018-12-06T08:30:37.499Z,100999.23
2018-12-06T08:33:05.053Z,100993.73
2018-12-06T08:35:33.409Z,101002.75
2018-12-06T08:38:02.357Z,101005.01
2018-12-06T08:40:31.463Z,101007.27
2018-12-06T08:42:59.082Z,101007.70
2018-12-06T08:45:30.379Z,101014.19
2018-12-06T08:47:59.660Z,101017.14
2018-12-06T08:50:28.567Z,101019.28
2018-12-06T08:52:56.720Z,101016.78
2018-12-06T08:55:24.310Z,101012.96
2018-12-06T08:57:53.076Z,101016.44
2018-12-06T09:00:21.990Z,101014.33
2018-12-06T09:02:49.551Z,101016.83
2018-12-06T09:05:18.339Z,101015.21
2018-12-06T09:07:45.865Z,101013.53
2018-12-06T09:10:14.214Z,101018.29
2018-12-06T09:12:41.947Z,101006.73
2018-12-06T09:15:10.111Z,101008.48
2018-12-06T09:17:37.647Z,101003.82
2018-12-06T09:20:05.591Z,101011.97
2018-12-06T09:22:33.179Z,101004.77
2018-12-06T09:25:00.740Z,100988.97
2018-12-06T09:27:28.589Z,100980.48
2018-12-06T09:29:57.043Z,100975.77
2018-12-06T09:32:25.116Z,100970.67
2018-12-06T09:34:53.720Z,100973.67
2018-12-06T09:37:22.633Z,100963.88
2018-12-06T09:39:55.968Z,100962.19
2018-12-06T09:42:25.704Z,100956.63
2018-12-06T09:44:54.269Z,100954.53
2018-12-06T09:47:21.779Z,100946.45
2018-12-06T09:49:52.341Z,100938.37
2018-12-06T09:52:21.785Z,100930.28
2018-12-06T09:54:49.849Z,100934.14
2018-12-06T09:57:20.225Z,100929.03
2018-12-06T09:59:47.846Z,100925.63
2018-12-06T10:02:17.182Z,100925.20
2018-12-06T10:04:48.800Z,100927.25
2018-12-06T10:07:18.495Z,100920.39
2018-12-06T10:09:46.253Z,100936.64
2018-12-06T10:12:13.763Z,100929.38
2018-12-06T10:14:41.425Z,100936.64
2018-12-06T10:17:10.926Z,100931.94
2018-12-06T10:19:39.582Z,100938.36
2018-12-06T10:22:07.146Z,100928.08
2018-12-06T10:24:35.604Z,100939.63
2018-12-06T10:27:03.926Z,100935.37
2018-12-06T10:29:35.423Z,100934.08
2018-12-06T10:32:02.991Z,100934.55
2018-12-06T10:34:33.371Z,100939.67
2018-12-06T10:37:01.080Z,100926.84
2018-12-06T10:39:30.120Z,100934.14
2018-12-06T10:41:57.841Z,100927.70
2018-12-06T10:44:29.660Z,100932.48
2018-12-06T10:46:58.286Z,100929.06
2018-12-06T10:49:26.734Z,100939.75
2018-12-06T10:51:55.326Z,100944.03
2018-12-06T10:54:22.838Z,100934.22
2018-12-06T10:56:51.896Z,100936.77
2018-12-06T10:59:19.454Z,100936.38
2018-12-06T11:01:47.012Z,100937.64
2018-12-06T11:04:14.582Z,100936.78
2018-12-06T11:06:42.255Z,100926.98
2018-12-06T11:09:09.980Z,100921.86
2018-12-06T11:11:38.333Z,100915.02
2018-12-06T11:14:06.380Z,100917.59
2018-12-06T11:16:37.331Z,100919.27
2018-12-06T11:19:05.774Z,100930.84
2018-12-06T11:21:33.361Z,100934.69
2018-12-06T11:24:00.922Z,100923.53
2018-12-06T11:26:28.476Z,100935.50
2018-12-06T11:28:56.057Z,100947.06
2018-12-06T11:31:24.267Z,100948.75
2018-12-06T11:33:51.800Z,100944.89
2018-12-06T11:36:19.970Z,100945.75
2018-12-06T11:38:47.644Z,100945.75
2018-12-06T11:41:16.100Z,100944.45
2018-12-06T11:43:43.769Z,100937.18
2018-12-06T11:46:11.396Z,100938.89
2018-12-06T11:48:38.941Z,100940.64
2018-12-06T11:51:06.481Z,100938.90
2018-12-06T11:53:34.686Z,100937.62
2018-12-06T11:56:03.713Z,100937.62
2018-12-06T11:58:36.771Z,100940.62
2018-12-06T12:01:05.505Z,100953.03
2018-12-06T12:03:33.178Z,100943.18
2018-12-06T12:06:00.926Z,100943.18
2018-12-06T12:08:28.456Z,100938.90
2018-12-06T12:10:56.658Z,100938.92
2018-12-06T12:13:24.980Z,100939.79
2018-12-06T12:15:55.023Z,100934.26
2018-12-06T12:18:25.073Z,100928.69
2018-12-06T12:20:56.624Z,100937.70
2018-12-06T12:23:27.664Z,100924.42
2018-12-06T12:25:55.844Z,100922.70
2018-12-06T12:28:28.544Z,100928.72
2018-12-06T12:30:56.119Z,100927.02
2018-12-06T12:33:25.105Z,100938.15
2018-12-06T12:35:55.643Z,100931.72
2018-12-06T12:38:23.756Z,100938.58
2018-12-06T12:40:52.608Z,100934.73
2018-12-06T12:43:22.015Z,100927.03
2018-12-06T12:45:51.617Z,100920.16
2018-12-06T12:48:20.245Z,100927.44
2018-12-06T12:50:50.892Z,100933.84
2018-12-06T12:53:19.266Z,100931.73
2018-12-06T12:55:48.276Z,100933.44
2018-12-06T12:58:18.698Z,100937.73
2018-12-06T13:00:47.093Z,100943.27
2018-12-06T13:03:18.030Z,100943.27
2018-12-06T13:05:47.407Z,100941.99
2018-12-06T13:08:19.998Z,100943.29
2018-12-06T13:10:48.311Z,100945.00
2018-12-06T13:13:16.224Z,100939.02
2018-12-06T13:15:44.056Z,100942.02
2018-12-06T13:18:11.876Z,100949.31
2018-12-06T13:20:39.381Z,100951.44
2018-12-06T13:23:06.879Z,100949.70
2018-12-06T13:25:35.048Z,100953.55
2018-12-06T13:28:03.603Z,100946.71
2018-12-06T13:30:33.242Z,100945.87
2018-12-06T13:33:01.065Z,100942.08
2018-12-06T13:35:28.804Z,100945.92
2018-12-06T13:37:56.382Z,100945.91
2018-12-06T13:40:24.091Z,100951.05
2018-12-06T13:42:52.045Z,100951.92
2018-12-06T13:45:19.643Z,100948.52
2018-12-06T13:47:47.242Z,100955.36
2018-12-06T13:50:14.912Z,100949.36
2018-12-06T13:52:42.416Z,100942.52
2018-12-06T13:55:11.850Z,100936.96
2018-12-06T13:57:39.458Z,100932.67
2018-12-06T14:00:07.356Z,100929.25
2018-12-06T14:02:34.970Z,100923.71
2018-12-06T14:05:02.487Z,100914.72
2018-12-06T14:07:30.136Z,100922.85
2018-12-06T14:09:57.743Z,100924.55
2018-12-06T14:12:26.194Z,100923.27
2018-12-06T14:14:53.807Z,100921.59
2018-12-06T14:17:21.376Z,100926.28
2018-12-06T14:19:48.986Z,100931.86
2018-12-06T14:22:16.575Z,100929.71
2018-12-06T14:24:44.173Z,100935.70
2018-12-06T14:27:12.886Z,100936.13
2018-12-06T14:29:40.454Z,100929.73
2018-12-06T14:32:07.974Z,100928.02
2018-12-06T14:34:35.537Z,100933.16
2018-12-06T14:37:03.054Z,100933.15
2018-12-06T14:39:30.801Z,100923.31
2018-12-06T14:41:58.369Z,100922.88
2018-12-06T14:44:26.123Z,100926.30
2018-12-06T14:46:53.731Z,100926.30
2018-12-06T14:49:21.277Z,100930.14
2018-12-06T14:51:49.269Z,100939.98
2018-12-06T14:54:16.823Z,100938.72
2018-12-06T14:56:44.498Z,100937.02
2018-12-06T14:59:12.062Z,100943.86
2018-12-06T15:01:39.668Z,100944.70
2018-12-06T15:04:07.269Z,100945.98
2018-12-06T15:06:37.729Z,100941.28
2018-12-06T15:09:08.616Z,100948.12
2018-12-06T15:11:37.167Z,100946.41
2018-12-06T15:14:04.775Z,100949.00
2018-12-06T15:16:32.305Z,100935.73
2018-12-06T15:18:59.849Z,100941.72
2018-12-06T15:21:27.549Z,100947.27
2018-12-06T15:23:55.083Z,100946.88
2018-12-06T15:26:22.933Z,100938.72
2018-12-06T15:28:51.285Z,100946.43
2018-12-06T15:31:20.198Z,100943.02
2018-12-06T15:33:47.730Z,100939.16
2018-12-06T15:36:15.623Z,100932.30
2018-12-06T15:38:43.336Z,100940.01
2018-12-06T15:41:12.148Z,100940.02
2018-12-06T15:43:39.861Z,100941.33
2018-12-06T15:46:07.467Z,100938.31
2018-12-06T15:48:35.061Z,100949.03
2018-12-06T15:51:03.099Z,100951.60
2018-12-06T15:53:30.676Z,100942.19
2018-12-06T15:55:58.932Z,100942.17
2018-12-06T15:58:28.426Z,100945.17
2018-12-06T16:00:56.858Z,100935.75
2018-12-06T16:03:24.463Z,100937.91
2018-12-06T16:05:51.997Z,100934.05
2018-12-06T16:08:19.752Z,100937.06
2018-12-06T16:10:49.242Z,100928.06
2018-12-06T16:13:17.101Z,100929.77
2018-12-06T16:15:44.759Z,100929.77
2018-12-06T16:18:12.442Z,100929.34
2018-12-06T16:20:40.122Z,100942.63
2018-12-06T16:23:07.899Z,100931.05
2018-12-06T16:25:35.542Z,100942.20
2018-12-06T16:28:03.227Z,100940.91
2018-12-06T16:30:30.766Z,100941.76
2018-12-06T16:32:59.181Z,100939.64
2018-12-06T16:35:28.564Z,100941.33
2018-12-06T16:37:57.124Z,100937.05
2018-12-06T16:40:25.625Z,100938.35
2018-12-06T16:42:53.442Z,100937.05
2018-12-06T16:45:21.072Z,100935.34
2018-12-06T16:47:48.639Z,100922.06
2018-12-06T16:50:16.173Z,100933.20
2018-12-06T16:52:43.776Z,100932.80
2018-12-06T16:55:11.563Z,100934.06
2018-12-06T16:57:39.149Z,100930.63
2018-12-06T17:00:11.285Z,100928.48
2018-12-06T17:02:39.021Z,100928.05
2018-12-06T17:05:06.680Z,100936.61
2018-12-06T17:07:34.208Z,100933.20
2018-12-06T17:10:02.726Z,100933.62
2018-12-06T17:12:30.384Z,100936.19
2018-12-06T17:14:59.062Z,100937.03
2018-12-06T17:17:27.628Z,100935.75
2018-12-06T17:19:59.225Z,100939.18
2018-12-06T17:22:27.243Z,100931.47
2018-12-06T17:24:54.886Z,100934.02
2018-12-06T17:27:22.679Z,100933.59
2018-12-06T17:29:50.261Z,100931.44
2018-12-06T17:32:20.980Z,100928.44
2018-12-06T17:34:48.652Z,100935.75
2018-12-06T17:37:17.500Z,100925.44
2018-12-06T17:39:45.613Z,100919.44
2018-12-06T17:42:13.378Z,100927.12
2018-12-06T17:47:24.625Z,100912.98
2018-12-06T17:49:55.195Z,100917.25
2018-12-06T17:52:27.066Z,100913.82
2018-12-06T17:54:55.256Z,100919.80
2018-12-06T17:57:23.843Z,100917.69
2018-12-06T17:59:57.620Z,100918.95
2018-12-06T18:02:28.117Z,100913.81
2018-12-06T18:04:56.441Z,100919.36
2018-12-06T18:07:24.851Z,100908.24
2018-12-06T18:09:52.728Z,100909.95
2018-12-06T18:12:20.739Z,100906.95
2018-12-06T18:14:49.844Z,100908.22
2018-12-06T18:17:17.426Z,100905.66
2018-12-06T18:19:47.920Z,100900.08
2018-12-06T18:22:15.579Z,100899.62
2018-12-06T18:24:43.177Z,100894.95
2018-12-06T18:27:10.914Z,100895.80
2018-12-06T18:29:38.461Z,100893.66
2018-12-06T18:32:06.117Z,100890.62
2018-12-06T18:34:33.741Z,100882.05
2018-12-06T18:37:02.901Z,100888.48
2018-12-06T18:39:31.994Z,100896.61
2018-12-06T18:41:59.652Z,100892.77
2018-12-06T18:44:27.268Z,100895.34
2018-12-06T18:46:55.573Z,100897.48
2018-12-06T18:49:24.094Z,100897.05
2018-12-06T18:51:51.640Z,100894.91
2018-12-06T18:54:19.143Z,100892.77
2018-12-06T18:56:47.514Z,100899.64
2018-12-06T18:59:15.422Z,100895.34
2018-12-06T19:01:46.018Z,100892.80
2018-12-06T19:04:14.224Z,100896.23
2018-12-06T19:06:42.017Z,100887.64
2018-12-06T19:09:10.416Z,100890.21
2018-12-06T19:11:37.996Z,100894.48
2018-12-06T19:14:06.607Z,100883.76
2018-12-06T19:16:34.161Z,100876.89
2018-12-06T19:19:01.774Z,100868.30
2018-12-06T19:21:29.719Z,100855.42
2018-12-06T19:23:57.249Z,100856.73
2018-12-06T19:26:24.887Z,100856.28
2018-12-06T19:28:52.395Z,100864.42
2018-12-06T19:31:20.007Z,100858.84
2018-12-06T19:33:47.571Z,100856.28
2018-12-06T19:36:15.100Z,100852.81
2018-12-06T19:38:42.684Z,100851.11
2018-12-06T19:41:10.206Z,100853.25
2018-12-06T19:43:38.372Z,100855.38
2018-12-06T19:46:06.532Z,100848.50
2018-12-06T19:48:34.095Z,100847.22
2018-12-06T19:51:01.623Z,100852.38
2018-12-06T19:53:29.214Z,100853.64
2018-12-06T19:55:56.806Z,100848.48
2018-12-06T19:58:24.411Z,100849.77
2018-12-06T20:00:51.976Z,100851.47
2018-12-06T20:03:19.952Z,100842.89
2018-12-06T20:05:47.902Z,100851.88
2018-12-06T20:08:16.768Z,100848.02
2018-12-06T20:10:44.336Z,100840.72
2018-12-06T20:13:11.887Z,100844.11
2018-12-06T20:15:39.907Z,100837.25
2018-12-06T20:18:07.625Z,100833.78
2018-12-06T20:20:35.148Z,100827.78
2018-12-06T20:23:03.258Z,100836.80
2018-12-06T20:25:30.889Z,100828.20
2018-12-06T20:27:58.481Z,100827.78
2018-12-06T20:30:26.144Z,100820.91
2018-12-06T20:32:53.704Z,100809.75
2018-12-06T20:35:21.214Z,100816.19
2018-12-06T20:37:48.745Z,100808.46
2018-12-06T20:40:16.299Z,100797.30
2018-12-06T20:42:43.941Z,100798.59
2018-12-06T20:45:11.728Z,100798.16
2018-12-06T20:47:39.277Z,100783.13
2018-12-06T20:50:06.875Z,100789.61
2018-12-06T20:52:35.387Z,100784.45
2018-12-06T20:55:03.124Z,100769.00
2018-12-06T20:57:37.220Z,100771.57
2018-12-06T21:00:02.029Z,100766.85
2018-12-06T21:02:29.763Z,100771.58
2018-12-06T21:04:57.369Z,100771.98
2018-12-06T21:07:25.343Z,100770.29
2018-12-06T21:09:53.113Z,100765.97
2018-12-06T21:12:20.663Z,100772.83
2018-12-06T21:14:48.582Z,100768.54
2018-12-06T21:17:16.117Z,100763.39
2018-12-06T21:19:43.689Z,100759.09
2018-12-06T21:22:11.436Z,100762.11
2018-12-06T21:24:38.981Z,100768.97
2018-12-06T21:27:06.998Z,100764.25
2018-12-06T21:29:34.899Z,100759.95
2018-12-06T21:32:02.962Z,100756.95
2018-12-06T21:34:30.967Z,100744.08
2018-12-06T21:36:58.529Z,100736.78
2018-12-06T21:39:26.077Z,100741.50
2018-12-06T21:41:53.641Z,100753.52
2018-12-06T21:44:21.692Z,100754.80
2018-12-06T21:46:49.298Z,100763.82
2018-12-06T21:49:16.913Z,100760.38
2018-12-06T21:51:44.513Z,100754.38
2018-12-06T21:54:12.191Z,100752.66
2018-12-06T21:56:39.889Z,100754.38
2018-12-06T21:59:07.613Z,100748.80
2018-12-06T22:01:35.244Z,100741.47
2018-12-06T22:04:04.200Z,100742.73
2018-12-06T22:06:31.860Z,100735.43
2018-12-06T22:08:59.666Z,100729.84
2018-12-06T22:11:28.813Z,100721.23
2018-12-06T22:13:56.450Z,100730.64
2018-12-06T22:16:24.037Z,100716.91
2018-12-06T22:18:51.608Z,100727.64
2018-12-06T22:21:19.175Z,100725.03
2018-12-06T22:23:47.080Z,100715.59
2018-12-06T22:26:14.751Z,100709.94
2018-12-06T22:28:42.723Z,100709.94
2018-12-06T22:31:10.335Z,100710.80
2018-12-06T22:33:37.900Z,100712.05
2018-12-06T22:36:06.734Z,100706.89
2018-12-06T22:38:35.334Z,100699.59
2018-12-06T22:41:04.463Z,100704.28
2018-12-06T22:43:33.030Z,100703.85
2018-12-06T22:46:00.971Z,100704.67
2018-12-06T22:48:28.664Z,100707.68
2018-12-06T22:50:56.377Z,100714.95
2018-12-06T22:53:24.931Z,100725.22
2018-12-06T22:55:52.684Z,100711.86
2018-12-06T22:58:20.266Z,100715.30
2018-12-06T23:00:50.824Z,100717.02
2018-12-06T23:03:18.551Z,100714.41
2018-12-06T23:05:46.101Z,100720.42
2018-12-06T23:08:13.631Z,100714.84
2018-12-06T23:10:42.134Z,100712.25
2018-12-06T23:13:10.175Z,100704.52
2018-12-06T23:15:37.693Z,100709.67
2018-12-06T23:18:05.202Z,100698.47
2018-12-06T23:20:32.735Z,100699.33
2018-12-06T23:23:00.294Z,100698.47
2018-12-06T23:25:27.881Z,100704.48
2018-12-06T23:27:55.425Z,100700.63
2018-12-06T23:30:23.983Z,100699.38
2018-12-06T23:32:51.572Z,100699.38
2018-12-06T23:35:19.160Z,100710.11
2018-12-06T23:37:46.727Z,100718.70
2018-12-06T23:40:14.295Z,100700.23
2018-12-06T23:42:41.962Z,100701.52
2018-12-06T23:45:09.627Z,100701.09
2018-12-06T23:47:38.403Z,100698.94
2018-12-06T23:50:06.506Z,100697.26
2018-12-06T23:52:34.886Z,100701.13
2018-12-06T23:55:02.543Z,100689.95
2018-12-06T23:57:30.815Z,100695.53
2018-12-06T23:59:58.422Z,100687.77
